sensor_id;sensor_type;location;lat;lon;timestamp;temperature;humidity
23534;DHT22;11944;50.796;4.322;2022-07-06T00:02:25;14.50;99.90
23534;DHT22;11944;50.796;4.322;2022-07-06T00:04:53;14.40;99.90
23534;DHT22;11944;50.796;4.322;2022-07-06T00:07:21;14.30;99.90
23534;DHT22;11944;50.796;4.322;2022-07-06T00:09:49;14.20;99.90
23534;DHT22;11944;50.796;4.322;2022-07-06T00:12:16;14.20;99.90
23534;DHT22;11944;50.796;4.322;2022-07-06T00:14:44;14.20;99.90
23534;DHT22;11944;50.796;4.322;2022-07-06T00:17:12;14.10;99.90
23534;DHT22;11944;50.796;4.322;2022-07-06T00:19:39;14.00;99.90
23534;DHT22;11944;50.796;4.322;2022-07-06T00:22:06;14.00;99.90
23534;DHT22;11944;50.796;4.322;2022-07-06T00:24:34;14.00;99.90
23534;DHT22;11944;50.796;4.322;2022-07-06T00:27:02;13.90;99.90
23534;DHT22;11944;50.796;4.322;2022-07-06T00:29:29;13.90;99.90
23534;DHT22;11944;50.796;4.322;2022-07-06T00:31:57;13.90;99.90
23534;DHT22;11944;50.796;4.322;2022-07-06T00:34:25;13.80;99.90
23534;DHT22;11944;50.796;4.322;2022-07-06T00:36:52;13.70;99.90
23534;DHT22;11944;50.796;4.322;2022-07-06T00:39:20;13.70;99.90
23534;DHT22;11944;50.796;4.322;2022-07-06T00:41:48;13.60;99.90
23534;DHT22;11944;50.796;4.322;2022-07-06T00:44:15;13.60;99.90
23534;DHT22;11944;50.796;4.322;2022-07-06T00:46:43;13.60;99.90
23534;DHT22;11944;50.796;4.322;2022-07-06T00:49:10;13.50;99.90
23534;DHT22;11944;50.796;4.322;2022-07-06T00:51:40;13.40;99.90
23534;DHT22;11944;50.796;4.322;2022-07-06T00:54:07;13.40;99.90
23534;DHT22;11944;50.796;4.322;2022-07-06T00:56:35;13.40;99.90
23534;DHT22;11944;50.796;4.322;2022-07-06T00:59:03;13.40;99.90
23534;DHT22;11944;50.796;4.322;2022-07-06T01:01:30;13.30;99.90
23534;DHT22;11944;50.796;4.322;2022-07-06T01:03:58;13.30;99.90
23534;DHT22;11944;50.796;4.322;2022-07-06T01:06:25;13.20;99.90
23534;DHT22;11944;50.796;4.322;2022-07-06T01:08:53;13.10;99.90
23534;DHT22;11944;50.796;4.322;2022-07-06T01:11:21;13.10;99.90
23534;DHT22;11944;50.796;4.322;2022-07-06T01:13:50;13.10;99.90
23534;DHT22;11944;50.796;4.322;2022-07-06T01:16:18;13.00;99.90
23534;DHT22;11944;50.796;4.322;2022-07-06T01:18:45;13.00;99.90
23534;DHT22;11944;50.796;4.322;2022-07-06T01:21:15;13.00;99.90
23534;DHT22;11944;50.796;4.322;2022-07-06T01:23:45;12.90;99.90
23534;DHT22;11944;50.796;4.322;2022-07-06T01:26:17;12.80;99.90
23534;DHT22;11944;50.796;4.322;2022-07-06T01:28:46;12.80;99.90
23534;DHT22;11944;50.796;4.322;2022-07-06T01:31:17;12.80;99.90
23534;DHT22;11944;50.796;4.322;2022-07-06T01:33:45;12.80;99.90
23534;DHT22;11944;50.796;4.322;2022-07-06T01:36:31;12.70;99.90
23534;DHT22;11944;50.796;4.322;2022-07-06T01:38:59;12.70;99.90
23534;DHT22;11944;50.796;4.322;2022-07-06T01:41:26;12.70;99.90
23534;DHT22;11944;50.796;4.322;2022-07-06T01:43:54;12.70;99.90
23534;DHT22;11944;50.796;4.322;2022-07-06T01:46:21;12.70;99.90
23534;DHT22;11944;50.796;4.322;2022-07-06T01:48:49;12.60;99.90
23534;DHT22;11944;50.796;4.322;2022-07-06T01:51:17;12.60;99.90
23534;DHT22;11944;50.796;4.322;2022-07-06T01:53:45;12.60;99.90
23534;DHT22;11944;50.796;4.322;2022-07-06T01:56:12;12.60;99.90
23534;DHT22;11944;50.796;4.322;2022-07-06T01:58:40;12.60;99.90
23534;DHT22;11944;50.796;4.322;2022-07-06T02:01:10;12.50;99.90
23534;DHT22;11944;50.796;4.322;2022-07-06T02:03:38;12.50;99.90
23534;DHT22;11944;50.796;4.322;2022-07-06T02:06:06;12.50;99.90
23534;DHT22;11944;50.796;4.322;2022-07-06T02:08:35;12.50;99.90
23534;DHT22;11944;50.796;4.322;2022-07-06T02:11:04;12.40;99.90
23534;DHT22;11944;50.796;4.322;2022-07-06T02:13:32;12.40;99.90
23534;DHT22;11944;50.796;4.322;2022-07-06T02:16:00;12.40;99.90
23534;DHT22;11944;50.796;4.322;2022-07-06T02:18:27;12.30;99.90
23534;DHT22;11944;50.796;4.322;2022-07-06T02:20:55;12.30;99.90
23534;DHT22;11944;50.796;4.322;2022-07-06T02:23:23;12.30;99.90
23534;DHT22;11944;50.796;4.322;2022-07-06T02:25:50;12.30;99.90
23534;DHT22;11944;50.796;4.322;2022-07-06T02:28:18;12.20;99.90
23534;DHT22;11944;50.796;4.322;2022-07-06T02:30:45;12.10;99.90
23534;DHT22;11944;50.796;4.322;2022-07-06T02:33:13;12.10;99.90
23534;DHT22;11944;50.796;4.322;2022-07-06T02:35:40;12.10;99.90
23534;DHT22;11944;50.796;4.322;2022-07-06T02:38:10;12.10;99.90
23534;DHT22;11944;50.796;4.322;2022-07-06T02:40:37;12.00;99.90
23534;DHT22;11944;50.796;4.322;2022-07-06T02:43:05;12.00;99.90
23534;DHT22;11944;50.796;4.322;2022-07-06T02:45:33;12.00;99.90
23534;DHT22;11944;50.796;4.322;2022-07-06T02:48:01;12.00;99.90
23534;DHT22;11944;50.796;4.322;2022-07-06T02:50:28;12.00;99.90
23534;DHT22;11944;50.796;4.322;2022-07-06T02:52:56;12.00;99.90
23534;DHT22;11944;50.796;4.322;2022-07-06T02:55:25;12.00;99.90
23534;DHT22;11944;50.796;4.322;2022-07-06T02:57:52;12.00;99.90
23534;DHT22;11944;50.796;4.322;2022-07-06T03:00:20;12.00;99.90
23534;DHT22;11944;50.796;4.322;2022-07-06T03:02:47;11.90;99.90
23534;DHT22;11944;50.796;4.322;2022-07-06T03:05:15;11.90;99.90
23534;DHT22;11944;50.796;4.322;2022-07-06T03:07:42;11.90;99.90
23534;DHT22;11944;50.796;4.322;2022-07-06T03:10:10;11.90;99.90
23534;DHT22;11944;50.796;4.322;2022-07-06T03:12:37;11.90;99.90
23534;DHT22;11944;50.796;4.322;2022-07-06T03:15:06;11.80;99.90
23534;DHT22;11944;50.796;4.322;2022-07-06T03:17:36;11.80;99.90
23534;DHT22;11944;50.796;4.322;2022-07-06T03:20:04;11.80;99.90
23534;DHT22;11944;50.796;4.322;2022-07-06T03:22:32;11.80;99.90
23534;DHT22;11944;50.796;4.322;2022-07-06T03:25:00;11.80;99.90
23534;DHT22;11944;50.796;4.322;2022-07-06T03:27:27;11.70;99.90
23534;DHT22;11944;50.796;4.322;2022-07-06T03:29:55;11.70;99.90
23534;DHT22;11944;50.796;4.322;2022-07-06T03:32:22;11.70;99.90
23534;DHT22;11944;50.796;4.322;2022-07-06T03:34:50;11.70;99.90
23534;DHT22;11944;50.796;4.322;2022-07-06T03:37:17;11.70;99.90
23534;DHT22;11944;50.796;4.322;2022-07-06T03:39:45;11.70;99.90
23534;DHT22;11944;50.796;4.322;2022-07-06T03:42:12;11.70;99.90
23534;DHT22;11944;50.796;4.322;2022-07-06T03:44:40;11.60;99.90
23534;DHT22;11944;50.796;4.322;2022-07-06T03:47:07;11.60;99.90
23534;DHT22;11944;50.796;4.322;2022-07-06T03:49:35;11.60;99.90
23534;DHT22;11944;50.796;4.322;2022-07-06T03:52:03;11.70;99.90
23534;DHT22;11944;50.796;4.322;2022-07-06T03:54:31;11.70;99.90
23534;DHT22;11944;50.796;4.322;2022-07-06T03:56:58;11.70;99.90
23534;DHT22;11944;50.796;4.322;2022-07-06T03:59:26;11.70;99.90
23534;DHT22;11944;50.796;4.322;2022-07-06T04:01:53;11.70;99.90
23534;DHT22;11944;50.796;4.322;2022-07-06T04:04:21;11.70;99.90
23534;DHT22;11944;50.796;4.322;2022-07-06T04:06:48;11.70;99.90
23534;DHT22;11944;50.796;4.322;2022-07-06T04:09:16;11.80;99.90
23534;DHT22;11944;50.796;4.322;2022-07-06T04:11:43;11.80;99.90
23534;DHT22;11944;50.796;4.322;2022-07-06T04:14:11;11.90;99.90
23534;DHT22;11944;50.796;4.322;2022-07-06T04:16:38;12.00;99.90
23534;DHT22;11944;50.796;4.322;2022-07-06T04:19:06;12.10;99.90
23534;DHT22;11944;50.796;4.322;2022-07-06T04:21:33;12.00;99.90
23534;DHT22;11944;50.796;4.322;2022-07-06T04:24:03;12.10;99.90
23534;DHT22;11944;50.796;4.322;2022-07-06T04:26:30;12.00;99.90
23534;DHT22;11944;50.796;4.322;2022-07-06T04:28:57;12.00;99.90
23534;DHT22;11944;50.796;4.322;2022-07-06T04:31:25;12.10;99.90
23534;DHT22;11944;50.796;4.322;2022-07-06T04:33:52;12.20;99.90
23534;DHT22;11944;50.796;4.322;2022-07-06T04:36:20;12.20;99.90
23534;DHT22;11944;50.796;4.322;2022-07-06T04:38:47;12.30;99.90
23534;DHT22;11944;50.796;4.322;2022-07-06T04:41:15;12.50;99.90
23534;DHT22;11944;50.796;4.322;2022-07-06T04:43:42;12.60;99.90
23534;DHT22;11944;50.796;4.322;2022-07-06T04:46:29;12.80;99.90
23534;DHT22;11944;50.796;4.322;2022-07-06T04:48:57;12.90;99.90
23534;DHT22;11944;50.796;4.322;2022-07-06T04:51:24;13.10;99.90
23534;DHT22;11944;50.796;4.322;2022-07-06T04:53:52;13.20;99.90
23534;DHT22;11944;50.796;4.322;2022-07-06T04:56:19;13.30;99.90
23534;DHT22;11944;50.796;4.322;2022-07-06T04:58:47;13.50;99.90
23534;DHT22;11944;50.796;4.322;2022-07-06T05:01:14;13.60;99.90
23534;DHT22;11944;50.796;4.322;2022-07-06T05:03:42;13.60;99.90
23534;DHT22;11944;50.796;4.322;2022-07-06T05:06:09;13.70;99.90
23534;DHT22;11944;50.796;4.322;2022-07-06T05:08:37;13.70;99.90
23534;DHT22;11944;50.796;4.322;2022-07-06T05:11:05;13.60;99.90
23534;DHT22;11944;50.796;4.322;2022-07-06T05:13:51;13.70;99.90
23534;DHT22;11944;50.796;4.322;2022-07-06T05:16:20;13.80;99.90
23534;DHT22;11944;50.796;4.322;2022-07-06T05:18:47;13.90;99.90
23534;DHT22;11944;50.796;4.322;2022-07-06T05:21:15;13.90;99.90
23534;DHT22;11944;50.796;4.322;2022-07-06T05:23:43;14.00;99.90
23534;DHT22;11944;50.796;4.322;2022-07-06T05:26:10;14.10;99.90
23534;DHT22;11944;50.796;4.322;2022-07-06T05:28:38;14.40;99.90
23534;DHT22;11944;50.796;4.322;2022-07-06T05:31:05;14.40;99.90
23534;DHT22;11944;50.796;4.322;2022-07-06T05:33:33;14.40;99.90
23534;DHT22;11944;50.796;4.322;2022-07-06T05:36:01;14.50;99.90
23534;DHT22;11944;50.796;4.322;2022-07-06T05:38:28;14.60;99.90
23534;DHT22;11944;50.796;4.322;2022-07-06T05:40:56;14.80;99.90
23534;DHT22;11944;50.796;4.322;2022-07-06T05:43:23;15.00;99.90
23534;DHT22;11944;50.796;4.322;2022-07-06T05:45:51;15.10;99.90
23534;DHT22;11944;50.796;4.322;2022-07-06T05:48:19;15.30;99.90
23534;DHT22;11944;50.796;4.322;2022-07-06T05:51:04;15.30;99.90
23534;DHT22;11944;50.796;4.322;2022-07-06T05:53:32;15.50;99.90
23534;DHT22;11944;50.796;4.322;2022-07-06T05:55:59;15.70;99.90
23534;DHT22;11944;50.796;4.322;2022-07-06T05:58:27;15.40;99.90
23534;DHT22;11944;50.796;4.322;2022-07-06T06:00:54;15.50;99.90
23534;DHT22;11944;50.796;4.322;2022-07-06T06:03:22;15.60;99.90
23534;DHT22;11944;50.796;4.322;2022-07-06T06:05:50;15.40;99.90
23534;DHT22;11944;50.796;4.322;2022-07-06T06:08:18;15.40;99.90
23534;DHT22;11944;50.796;4.322;2022-07-06T06:10:45;15.50;99.90
23534;DHT22;11944;50.796;4.322;2022-07-06T06:13:13;15.50;99.90
23534;DHT22;11944;50.796;4.322;2022-07-06T06:15:40;15.80;99.90
23534;DHT22;11944;50.796;4.322;2022-07-06T06:18:08;16.20;99.90
23534;DHT22;11944;50.796;4.322;2022-07-06T06:20:55;16.60;99.90
23534;DHT22;11944;50.796;4.322;2022-07-06T06:23:22;17.00;99.90
23534;DHT22;11944;50.796;4.322;2022-07-06T06:25:50;17.40;99.90
23534;DHT22;11944;50.796;4.322;2022-07-06T06:28:17;17.80;99.90
23534;DHT22;11944;50.796;4.322;2022-07-06T06:30:45;18.20;99.90
23534;DHT22;11944;50.796;4.322;2022-07-06T06:33:18;18.00;99.90
23534;DHT22;11944;50.796;4.322;2022-07-06T06:35:50;17.50;99.90
23534;DHT22;11944;50.796;4.322;2022-07-06T06:38:20;17.80;99.90
23534;DHT22;11944;50.796;4.322;2022-07-06T06:40:47;18.20;99.90
23534;DHT22;11944;50.796;4.322;2022-07-06T06:43:15;18.20;99.90
23534;DHT22;11944;50.796;4.322;2022-07-06T06:45:43;18.60;99.90
23534;DHT22;11944;50.796;4.322;2022-07-06T06:48:11;19.00;99.90
23534;DHT22;11944;50.796;4.322;2022-07-06T06:50:39;19.30;99.90
23534;DHT22;11944;50.796;4.322;2022-07-06T06:53:06;19.00;99.90
23534;DHT22;11944;50.796;4.322;2022-07-06T06:55:34;19.20;99.90
23534;DHT22;11944;50.796;4.322;2022-07-06T06:58:01;19.30;99.90
23534;DHT22;11944;50.796;4.322;2022-07-06T07:00:29;19.10;99.90
23534;DHT22;11944;50.796;4.322;2022-07-06T07:02:57;19.40;99.90
23534;DHT22;11944;50.796;4.322;2022-07-06T07:05:24;19.80;99.90
23534;DHT22;11944;50.796;4.322;2022-07-06T07:07:52;20.30;99.90
23534;DHT22;11944;50.796;4.322;2022-07-06T07:10:21;20.30;99.90
23534;DHT22;11944;50.796;4.322;2022-07-06T07:12:48;19.80;99.90
23534;DHT22;11944;50.796;4.322;2022-07-06T07:15:16;19.80;99.90
23534;DHT22;11944;50.796;4.322;2022-07-06T07:17:43;20.60;99.90
23534;DHT22;11944;50.796;4.322;2022-07-06T07:20:12;21.40;99.90
23534;DHT22;11944;50.796;4.322;2022-07-06T07:22:39;21.40;99.90
23534;DHT22;11944;50.796;4.322;2022-07-06T07:25:07;22.00;99.90
23534;DHT22;11944;50.796;4.322;2022-07-06T07:27:35;22.50;99.90
23534;DHT22;11944;50.796;4.322;2022-07-06T07:30:03;22.90;99.90
23534;DHT22;11944;50.796;4.322;2022-07-06T07:32:31;22.40;99.90
23534;DHT22;11944;50.796;4.322;2022-07-06T07:34:59;22.80;99.90
23534;DHT22;11944;50.796;4.322;2022-07-06T07:37:27;23.50;99.90
23534;DHT22;11944;50.796;4.322;2022-07-06T07:39:55;23.90;99.90
23534;DHT22;11944;50.796;4.322;2022-07-06T07:42:22;24.70;99.90
23534;DHT22;11944;50.796;4.322;2022-07-06T07:44:50;23.50;99.90
23534;DHT22;11944;50.796;4.322;2022-07-06T07:47:18;24.00;99.90
23534;DHT22;11944;50.796;4.322;2022-07-06T07:49:45;25.00;99.90
23534;DHT22;11944;50.796;4.322;2022-07-06T07:52:13;26.10;98.90
23534;DHT22;11944;50.796;4.322;2022-07-06T07:54:41;27.00;97.10
23534;DHT22;11944;50.796;4.322;2022-07-06T07:57:09;28.20;95.20
23534;DHT22;11944;50.796;4.322;2022-07-06T07:59:36;28.70;92.00
23534;DHT22;11944;50.796;4.322;2022-07-06T08:02:04;29.30;90.20
23534;DHT22;11944;50.796;4.322;2022-07-06T08:04:31;30.00;87.30
23534;DHT22;11944;50.796;4.322;2022-07-06T08:06:59;30.60;86.30
23534;DHT22;11944;50.796;4.322;2022-07-06T08:09:26;31.20;82.60
23534;DHT22;11944;50.796;4.322;2022-07-06T08:11:54;30.90;81.60
23534;DHT22;11944;50.796;4.322;2022-07-06T08:14:21;30.30;82.50
23534;DHT22;11944;50.796;4.322;2022-07-06T08:16:49;26.80;84.50
23534;DHT22;11944;50.796;4.322;2022-07-06T08:19:16;25.30;90.50
23534;DHT22;11944;50.796;4.322;2022-07-06T08:21:44;25.40;90.80
23534;DHT22;11944;50.796;4.322;2022-07-06T08:24:11;27.00;91.20
23534;DHT22;11944;50.796;4.322;2022-07-06T08:26:39;28.00;88.90
23534;DHT22;11944;50.796;4.322;2022-07-06T08:29:06;27.00;89.60
23534;DHT22;11944;50.796;4.322;2022-07-06T08:31:34;25.90;90.40
23534;DHT22;11944;50.796;4.322;2022-07-06T08:34:02;25.00;91.10
23534;DHT22;11944;50.796;4.322;2022-07-06T08:36:30;25.20;92.00
23534;DHT22;11944;50.796;4.322;2022-07-06T08:38:58;25.30;91.40
23534;DHT22;11944;50.796;4.322;2022-07-06T08:41:29;27.30;91.70
23534;DHT22;11944;50.796;4.322;2022-07-06T08:43:56;26.90;90.10
23534;DHT22;11944;50.796;4.322;2022-07-06T08:46:25;25.90;90.70
23534;DHT22;11944;50.796;4.322;2022-07-06T08:48:54;26.70;91.80
23534;DHT22;11944;50.796;4.322;2022-07-06T08:51:24;25.40;91.70
23534;DHT22;11944;50.796;4.322;2022-07-06T08:53:53;26.20;92.60
23534;DHT22;11944;50.796;4.322;2022-07-06T08:56:22;27.70;91.30
23534;DHT22;11944;50.796;4.322;2022-07-06T08:58:50;28.70;90.50
23534;DHT22;11944;50.796;4.322;2022-07-06T09:01:18;28.90;91.10
23534;DHT22;11944;50.796;4.322;2022-07-06T09:03:48;28.80;89.10
23534;DHT22;11944;50.796;4.322;2022-07-06T09:06:26;27.20;90.20
23534;DHT22;11944;50.796;4.322;2022-07-06T09:08:56;27.00;90.80
23534;DHT22;11944;50.796;4.322;2022-07-06T09:11:24;27.00;91.30
23534;DHT22;11944;50.796;4.322;2022-07-06T09:13:52;27.20;90.60
23534;DHT22;11944;50.796;4.322;2022-07-06T09:16:28;27.40;90.70
23534;DHT22;11944;50.796;4.322;2022-07-06T09:18:56;26.10;91.00
23534;DHT22;11944;50.796;4.322;2022-07-06T09:21:26;25.70;91.70
23534;DHT22;11944;50.796;4.322;2022-07-06T09:23:58;25.90;92.00
23534;DHT22;11944;50.796;4.322;2022-07-06T09:26:28;25.10;91.40
23534;DHT22;11944;50.796;4.322;2022-07-06T09:28:56;24.00;93.60
23534;DHT22;11944;50.796;4.322;2022-07-06T09:31:25;23.30;94.70
23534;DHT22;11944;50.796;4.322;2022-07-06T09:33:55;23.50;95.60
23534;DHT22;11944;50.796;4.322;2022-07-06T09:36:48;22.80;95.00
23534;DHT22;11944;50.796;4.322;2022-07-06T09:39:25;22.20;96.30
23534;DHT22;11944;50.796;4.322;2022-07-06T09:44:38;22.20;96.80
23534;DHT22;11944;50.796;4.322;2022-07-06T09:47:08;22.20;97.00
23534;DHT22;11944;50.796;4.322;2022-07-06T09:49:37;22.40;97.40
23534;DHT22;11944;50.796;4.322;2022-07-06T09:52:06;22.40;97.60
23534;DHT22;11944;50.796;4.322;2022-07-06T09:54:35;21.60;98.10
23534;DHT22;11944;50.796;4.322;2022-07-06T09:57:04;21.40;98.90
23534;DHT22;11944;50.796;4.322;2022-07-06T09:59:33;21.50;99.00
23534;DHT22;11944;50.796;4.322;2022-07-06T10:02:06;22.10;98.80
23534;DHT22;11944;50.796;4.322;2022-07-06T10:04:34;21.90;98.80
23534;DHT22;11944;50.796;4.322;2022-07-06T10:07:02;21.50;98.50
23534;DHT22;11944;50.796;4.322;2022-07-06T10:09:30;22.10;99.90
23534;DHT22;11944;50.796;4.322;2022-07-06T10:11:59;22.40;99.40
23534;DHT22;11944;50.796;4.322;2022-07-06T10:14:29;23.10;98.70
23534;DHT22;11944;50.796;4.322;2022-07-06T10:16:59;23.50;97.60
23534;DHT22;11944;50.796;4.322;2022-07-06T10:19:29;23.50;96.60
23534;DHT22;11944;50.796;4.322;2022-07-06T10:21:59;24.00;97.30
23534;DHT22;11944;50.796;4.322;2022-07-06T10:24:28;24.50;97.30
23534;DHT22;11944;50.796;4.322;2022-07-06T10:26:57;24.80;96.10
23534;DHT22;11944;50.796;4.322;2022-07-06T10:29:25;25.60;94.30
23534;DHT22;11944;50.796;4.322;2022-07-06T10:31:53;25.60;93.90
23534;DHT22;11944;50.796;4.322;2022-07-06T10:34:21;25.50;95.30
23534;DHT22;11944;50.796;4.322;2022-07-06T10:36:51;25.20;93.70
23534;DHT22;11944;50.796;4.322;2022-07-06T10:39:34;24.20;94.60
23534;DHT22;11944;50.796;4.322;2022-07-06T10:42:42;24.30;95.80
23534;DHT22;11944;50.796;4.322;2022-07-06T10:46:01;24.20;96.50
23534;DHT22;11944;50.796;4.322;2022-07-06T10:50:41;24.10;95.10
23534;DHT22;11944;50.796;4.322;2022-07-06T10:53:21;24.00;95.80
23534;DHT22;11944;50.796;4.322;2022-07-06T10:55:45;24.90;95.10
23534;DHT22;11944;50.796;4.322;2022-07-06T11:01:10;24.80;96.00
23534;DHT22;11944;50.796;4.322;2022-07-06T11:06:27;25.50;94.20
23534;DHT22;11944;50.796;4.322;2022-07-06T11:08:56;25.90;93.20
23534;DHT22;11944;50.796;4.322;2022-07-06T11:14:15;25.70;93.40
23534;DHT22;11944;50.796;4.322;2022-07-06T11:19:20;25.30;93.10
23534;DHT22;11944;50.796;4.322;2022-07-06T11:22:07;25.10;94.70
23534;DHT22;11944;50.796;4.322;2022-07-06T11:24:37;25.00;93.70
23534;DHT22;11944;50.796;4.322;2022-07-06T11:27:05;24.80;96.90
23534;DHT22;11944;50.796;4.322;2022-07-06T11:29:36;24.30;94.90
23534;DHT22;11944;50.796;4.322;2022-07-06T11:32:06;23.60;95.10
23534;DHT22;11944;50.796;4.322;2022-07-06T11:34:38;23.50;96.20
23534;DHT22;11944;50.796;4.322;2022-07-06T11:37:11;23.40;95.40
23534;DHT22;11944;50.796;4.322;2022-07-06T11:39:40;23.80;95.60
23534;DHT22;11944;50.796;4.322;2022-07-06T11:42:09;24.80;94.20
23534;DHT22;11944;50.796;4.322;2022-07-06T11:44:38;24.70;94.50
23534;DHT22;11944;50.796;4.322;2022-07-06T11:47:07;25.50;94.80
23534;DHT22;11944;50.796;4.322;2022-07-06T11:49:37;25.50;94.60
23534;DHT22;11944;50.796;4.322;2022-07-06T11:52:12;25.70;94.70
23534;DHT22;11944;50.796;4.322;2022-07-06T11:54:41;24.70;93.90
23534;DHT22;11944;50.796;4.322;2022-07-06T11:57:10;23.80;95.10
23534;DHT22;11944;50.796;4.322;2022-07-06T11:59:40;23.50;95.90
23534;DHT22;11944;50.796;4.322;2022-07-06T12:02:10;23.80;96.20
23534;DHT22;11944;50.796;4.322;2022-07-06T12:04:41;23.90;95.50
23534;DHT22;11944;50.796;4.322;2022-07-06T12:07:10;24.30;95.40
23534;DHT22;11944;50.796;4.322;2022-07-06T12:09:40;24.60;95.60
23534;DHT22;11944;50.796;4.322;2022-07-06T12:12:09;25.40;97.10
23534;DHT22;11944;50.796;4.322;2022-07-06T12:14:38;25.90;95.50
23534;DHT22;11944;50.796;4.322;2022-07-06T12:17:07;25.70;93.50
23534;DHT22;11944;50.796;4.322;2022-07-06T12:19:36;24.80;94.20
23534;DHT22;11944;50.796;4.322;2022-07-06T12:22:04;23.60;95.40
23534;DHT22;11944;50.796;4.322;2022-07-06T12:24:34;23.20;96.70
23534;DHT22;11944;50.796;4.322;2022-07-06T12:27:17;23.30;96.80
23534;DHT22;11944;50.796;4.322;2022-07-06T12:29:45;23.10;96.80
23534;DHT22;11944;50.796;4.322;2022-07-06T12:32:18;23.10;96.50
23534;DHT22;11944;50.796;4.322;2022-07-06T12:34:46;23.60;97.30
23534;DHT22;11944;50.796;4.322;2022-07-06T12:37:14;24.00;98.50
23534;DHT22;11944;50.796;4.322;2022-07-06T12:39:45;23.90;95.90
23534;DHT22;11944;50.796;4.322;2022-07-06T12:42:16;24.30;95.20
23534;DHT22;11944;50.796;4.322;2022-07-06T12:44:46;24.80;95.70
23534;DHT22;11944;50.796;4.322;2022-07-06T12:47:17;25.50;95.60
23534;DHT22;11944;50.796;4.322;2022-07-06T12:49:45;25.50;95.20
23534;DHT22;11944;50.796;4.322;2022-07-06T12:52:14;25.60;94.40
23534;DHT22;11944;50.796;4.322;2022-07-06T12:54:46;25.10;94.00
23534;DHT22;11944;50.796;4.322;2022-07-06T12:57:21;25.30;95.10
23534;DHT22;11944;50.796;4.322;2022-07-06T12:59:55;24.70;94.80
23534;DHT22;11944;50.796;4.322;2022-07-06T13:05:05;24.60;95.80
23534;DHT22;11944;50.796;4.322;2022-07-06T13:07:34;24.90;95.50
23534;DHT22;11944;50.796;4.322;2022-07-06T13:10:10;25.30;95.50
23534;DHT22;11944;50.796;4.322;2022-07-06T13:12:33;25.60;94.90
23534;DHT22;11944;50.796;4.322;2022-07-06T13:15:01;25.70;93.20
23534;DHT22;11944;50.796;4.322;2022-07-06T13:17:29;25.40;95.50
23534;DHT22;11944;50.796;4.322;2022-07-06T13:19:57;25.00;95.40
23534;DHT22;11944;50.796;4.322;2022-07-06T13:22:24;24.50;94.90
23534;DHT22;11944;50.796;4.322;2022-07-06T13:24:52;24.60;96.00
23534;DHT22;11944;50.796;4.322;2022-07-06T13:27:20;24.60;95.30
23534;DHT22;11944;50.796;4.322;2022-07-06T13:29:47;23.70;96.30
23534;DHT22;11944;50.796;4.322;2022-07-06T13:32:15;23.10;97.00
23534;DHT22;11944;50.796;4.322;2022-07-06T13:34:42;23.20;97.30
23534;DHT22;11944;50.796;4.322;2022-07-06T13:37:10;23.60;97.40
23534;DHT22;11944;50.796;4.322;2022-07-06T13:39:37;23.90;95.90
23534;DHT22;11944;50.796;4.322;2022-07-06T13:42:05;23.80;96.10
23534;DHT22;11944;50.796;4.322;2022-07-06T13:44:34;23.30;96.40
23534;DHT22;11944;50.796;4.322;2022-07-06T13:47:02;23.40;96.90
23534;DHT22;11944;50.796;4.322;2022-07-06T13:49:30;23.60;98.50
23534;DHT22;11944;50.796;4.322;2022-07-06T13:51:57;23.80;96.90
23534;DHT22;11944;50.796;4.322;2022-07-06T13:54:31;24.10;96.20
23534;DHT22;11944;50.796;4.322;2022-07-06T13:57:03;24.30;97.70
23534;DHT22;11944;50.796;4.322;2022-07-06T13:59:31;24.30;95.00
23534;DHT22;11944;50.796;4.322;2022-07-06T14:01:59;24.30;95.20
23534;DHT22;11944;50.796;4.322;2022-07-06T14:04:27;24.20;95.80
23534;DHT22;11944;50.796;4.322;2022-07-06T14:06:54;23.70;95.20
23534;DHT22;11944;50.796;4.322;2022-07-06T14:09:22;23.60;96.00
23534;DHT22;11944;50.796;4.322;2022-07-06T14:11:50;23.90;95.40
23534;DHT22;11944;50.796;4.322;2022-07-06T14:14:17;23.90;94.70
23534;DHT22;11944;50.796;4.322;2022-07-06T14:16:45;24.10;94.80
23534;DHT22;11944;50.796;4.322;2022-07-06T14:19:12;24.20;95.90
23534;DHT22;11944;50.796;4.322;2022-07-06T14:21:40;24.60;96.80
23534;DHT22;11944;50.796;4.322;2022-07-06T14:24:08;25.20;94.70
23534;DHT22;11944;50.796;4.322;2022-07-06T14:26:35;25.60;96.40
23534;DHT22;11944;50.796;4.322;2022-07-06T14:29:03;26.00;94.20
23534;DHT22;11944;50.796;4.322;2022-07-06T14:31:30;26.10;93.10
23534;DHT22;11944;50.796;4.322;2022-07-06T14:33:58;26.20;93.00
23534;DHT22;11944;50.796;4.322;2022-07-06T14:36:25;26.00;93.00
23534;DHT22;11944;50.796;4.322;2022-07-06T14:38:53;26.00;93.50
23534;DHT22;11944;50.796;4.322;2022-07-06T14:41:20;25.50;93.80
23534;DHT22;11944;50.796;4.322;2022-07-06T14:43:48;25.20;93.80
23534;DHT22;11944;50.796;4.322;2022-07-06T14:46:16;25.00;94.40
23534;DHT22;11944;50.796;4.322;2022-07-06T14:48:44;25.00;94.80
23534;DHT22;11944;50.796;4.322;2022-07-06T14:51:11;24.80;94.10
23534;DHT22;11944;50.796;4.322;2022-07-06T14:53:39;24.20;94.80
23534;DHT22;11944;50.796;4.322;2022-07-06T14:56:06;24.40;96.60
23534;DHT22;11944;50.796;4.322;2022-07-06T14:58:34;24.90;96.10
23534;DHT22;11944;50.796;4.322;2022-07-06T15:01:02;25.00;94.50
23534;DHT22;11944;50.796;4.322;2022-07-06T15:03:30;25.20;95.40
23534;DHT22;11944;50.796;4.322;2022-07-06T15:05:58;25.40;97.00
23534;DHT22;11944;50.796;4.322;2022-07-06T15:08:26;25.80;93.60
23534;DHT22;11944;50.796;4.322;2022-07-06T15:10:53;26.00;94.10
23534;DHT22;11944;50.796;4.322;2022-07-06T15:13:21;25.90;93.80
23534;DHT22;11944;50.796;4.322;2022-07-06T15:15:48;25.80;94.00
23534;DHT22;11944;50.796;4.322;2022-07-06T15:18:35;25.70;94.40
23534;DHT22;11944;50.796;4.322;2022-07-06T15:21:03;25.80;94.60
23534;DHT22;11944;50.796;4.322;2022-07-06T15:23:31;25.70;93.90
23534;DHT22;11944;50.796;4.322;2022-07-06T15:25:59;25.00;94.40
23534;DHT22;11944;50.796;4.322;2022-07-06T15:28:26;24.60;95.00
23534;DHT22;11944;50.796;4.322;2022-07-06T15:30:55;24.50;95.40
23534;DHT22;11944;50.796;4.322;2022-07-06T15:33:23;24.60;95.00
23534;DHT22;11944;50.796;4.322;2022-07-06T15:35:50;24.80;95.60
23534;DHT22;11944;50.796;4.322;2022-07-06T15:38:18;24.90;95.80
23534;DHT22;11944;50.796;4.322;2022-07-06T15:40:55;24.40;95.30
23534;DHT22;11944;50.796;4.322;2022-07-06T15:43:33;24.40;95.50
23534;DHT22;11944;50.796;4.322;2022-07-06T15:46:02;24.20;96.00
23534;DHT22;11944;50.796;4.322;2022-07-06T15:48:31;24.30;96.20
23534;DHT22;11944;50.796;4.322;2022-07-06T15:51:00;24.40;96.30
23534;DHT22;11944;50.796;4.322;2022-07-06T15:53:27;24.40;96.30
23534;DHT22;11944;50.796;4.322;2022-07-06T15:55:57;24.40;96.30
23534;DHT22;11944;50.796;4.322;2022-07-06T15:58:26;24.50;96.30
23534;DHT22;11944;50.796;4.322;2022-07-06T16:00:53;24.60;95.70